Cambridge, Idaho
Current Conditions -  °F | °C
As of 6:15 AM on Thursday 23 Oct 2014 (Local Time) from KMYL Reporting Station
Overcast Overcast  
Wind Chill: 38°   Ceiling: 3000
Heat Index: 43°   Visibility: 10mi
Dew Point: 41°   Wind: 9mph
Humidity: 93%   Direction: 150°SSE
Pressure: 30.01"   Gusts: NA
Location:  44.57°N, 116.68°W
Report Text: KMYL 231215Z AUTO 15008KT 10SM BKN030 BKN038 OVC048 06/05 A3001 RMK AO2 RAE08 P0000 T00610050
Loading
Personal Weather Stations






























Interactive Weather Map
Tropical Storm Tracking
New forecast layout! Learn more

10-Day Weather Forecast

Advertisements
Track Severe Weather on mobile